Time;durP1;ratioP1;P1;durP2;ratioP2;P2;SDS_P1;SDS_P2;PMS_P1;PMS_P2;Temp;Humidity;BMP_temperature;BMP_pressure;BME280_temperature;BME280_humidity;BME280_pressure;Samples;Min_cycle;Max_cycle;Signal;HPM_P1;HPM_P2
2023/10/04 00:02:06;;;;;;;8.55;1.67;;;;;;;;;;5043879;28;20061;-57
2023/10/04 00:04:34;;;;;;;5.60;1.80;;;;;;;;;;5039886;28;20139;-56
2023/10/04 00:07:04;;;;;;;8.35;1.60;;;;;;;;;;5042448;28;20490;-57
2023/10/04 00:09:34;;;;;;;3.25;1.20;;;;;;;;;;5042965;28;20041;-57
2023/10/04 00:12:01;;;;;;;7.30;1.55;;;;;;;;;;5039731;28;20053;-56
2023/10/04 00:14:28;;;;;;;5.25;1.55;;;;;;;;;;5043007;28;20044;-57
2023/10/04 00:16:54;;;;;;;6.20;1.55;;;;;;;;;;5043805;28;20052;-56
2023/10/04 00:19:21;;;;;;;6.50;1.55;;;;;;;;;;5046828;28;20045;-56
2023/10/04 00:21:48;;;;;;;5.95;1.67;;;;;;;;;;5042587;28;20150;-57
2023/10/04 00:24:14;;;;;;;6.78;1.40;;;;;;;;;;5044000;28;20495;-57
2023/10/04 00:26:42;;;;;;;5.55;1.33;;;;;;;;;;5042688;28;20057;-57
2023/10/04 00:29:08;;;;;;;4.50;1.10;;;;;;;;;;5049644;28;20463;-57
2023/10/04 00:31:36;;;;;;;5.38;1.23;;;;;;;;;;5040223;28;20068;-56
2023/10/04 00:34:03;;;;;;;3.88;1.10;;;;;;;;;;5045667;28;20048;-56
2023/10/04 00:36:30;;;;;;;7.18;1.88;;;;;;;;;;5040192;28;20041;-56
2023/10/04 00:38:56;;;;;;;7.82;1.48;;;;;;;;;;5039642;28;20052;-56
2023/10/04 00:41:23;;;;;;;5.78;1.13;;;;;;;;;;5037887;28;20045;-56
2023/10/04 00:43:50;;;;;;;6.35;1.10;;;;;;;;;;5045339;28;20526;-56
2023/10/04 00:46:20;;;;;;;4.50;1.05;;;;;;;;;;5038283;28;20053;-55
2023/10/04 00:48:47;;;;;;;3.47;1.20;;;;;;;;;;5041703;28;20128;-56
2023/10/04 00:51:15;;;;;;;4.38;1.90;;;;;;;;;;5041619;28;20091;-55
2023/10/04 00:53:42;;;;;;;5.90;1.27;;;;;;;;;;5041985;28;20045;-56
2023/10/04 00:56:09;;;;;;;7.10;1.30;;;;;;;;;;5043790;28;20055;-57
2023/10/04 00:58:36;;;;;;;10.43;1.50;;;;;;;;;;5041795;28;20049;-55
2023/10/04 01:01:06;;;;;;;5.22;1.40;;;;;;;;;;5045433;28;20056;-57
2023/10/04 01:03:37;;;;;;;5.30;1.30;;;;;;;;;;5039304;28;20052;-57
2023/10/04 01:06:04;;;;;;;5.75;1.63;;;;;;;;;;5039008;28;20061;-56
2023/10/04 01:08:32;;;;;;;4.82;1.05;;;;;;;;;;5037578;28;20053;-56
2023/10/04 01:10:59;;;;;;;7.95;1.67;;;;;;;;;;5039373;28;20053;-57
2023/10/04 01:13:26;;;;;;;4.20;1.38;;;;;;;;;;5045300;28;20076;-58
2023/10/04 01:15:57;;;;;;;3.28;0.85;;;;;;;;;;5041377;28;20045;-58
2023/10/04 01:18:24;;;;;;;7.53;2.08;;;;;;;;;;5044116;28;20080;-57
2023/10/04 01:20:51;;;;;;;2.97;1.17;;;;;;;;;;5039762;28;20103;-57
2023/10/04 01:23:18;;;;;;;4.78;1.13;;;;;;;;;;5043289;28;20045;-58
2023/10/04 01:25:46;;;;;;;5.00;1.35;;;;;;;;;;5042903;28;20048;-55
2023/10/04 01:28:14;;;;;;;7.85;2.03;;;;;;;;;;5042690;28;20466;-57
2023/10/04 01:30:41;;;;;;;5.97;1.27;;;;;;;;;;5042586;28;20072;-58
2023/10/04 01:33:15;;;;;;;3.75;1.10;;;;;;;;;;5041188;28;20049;-58
2023/10/04 01:35:44;;;;;;;13.40;1.60;;;;;;;;;;5041822;28;20440;-58
2023/10/04 01:38:12;;;;;;;4.07;1.30;;;;;;;;;;5042225;28;20548;-57
2023/10/04 01:40:40;;;;;;;3.83;1.05;;;;;;;;;;5026193;28;20052;-55
2023/10/04 01:43:14;;;;;;;5.03;1.10;;;;;;;;;;5041978;28;20056;-58
2023/10/04 01:45:50;;;;;;;3.13;0.95;;;;;;;;;;5022235;28;20063;-58
2023/10/04 01:48:17;;;;;;;3.95;1.38;;;;;;;;;;5039715;28;20196;-57
2023/10/04 01:50:44;;;;;;;5.30;1.23;;;;;;;;;;5040038;28;21082;-57
2023/10/04 01:53:12;;;;;;;5.63;1.00;;;;;;;;;;5026132;28;20162;-56
2023/10/04 01:55:40;;;;;;;3.60;1.17;;;;;;;;;;5041487;28;20059;-57
2023/10/04 01:58:07;;;;;;;7.60;1.85;;;;;;;;;;5038036;28;20054;-59
2023/10/04 02:00:34;;;;;;;4.63;1.38;;;;;;;;;;5036488;28;20057;-57
2023/10/04 02:03:01;;;;;;;8.23;1.10;;;;;;;;;;5041387;28;20045;-56
2023/10/04 02:05:29;;;;;;;7.13;1.83;;;;;;;;;;5041376;28;20075;-57
2023/10/04 02:07:59;;;;;;;8.68;1.60;;;;;;;;;;5035200;28;20041;-57
2023/10/04 02:10:26;;;;;;;3.78;1.48;;;;;;;;;;5042688;28;20045;-57
2023/10/04 02:12:55;;;;;;;6.28;2.13;;;;;;;;;;5041335;28;20044;-57
2023/10/04 02:15:21;;;;;;;5.28;1.65;;;;;;;;;;5040936;28;20045;-56
2023/10/04 02:17:50;;;;;;;7.68;1.77;;;;;;;;;;5043765;28;20077;-57
2023/10/04 02:20:28;;;;;;;12.25;2.97;;;;;;;;;;5041995;28;20438;-55
2023/10/04 02:22:57;;;;;;;3.35;1.00;;;;;;;;;;5037770;28;20069;-57
2023/10/04 02:25:25;;;;;;;6.20;1.23;;;;;;;;;;5037345;28;20088;-57
2023/10/04 02:27:52;;;;;;;4.20;1.15;;;;;;;;;;5042207;28;20040;-57
2023/10/04 02:30:23;;;;;;;5.97;1.45;;;;;;;;;;5040926;28;20056;-57
2023/10/04 02:32:50;;;;;;;2.58;1.08;;;;;;;;;;5045938;28;20043;-57
2023/10/04 02:35:34;;;;;;;6.18;1.23;;;;;;;;;;5041735;28;20159;-55
2023/10/04 02:38:09;;;;;;;8.98;1.70;;;;;;;;;;5038638;28;20114;-57
2023/10/04 02:40:37;;;;;;;9.10;1.50;;;;;;;;;;5039574;28;20124;-57
2023/10/04 02:43:06;;;;;;;7.00;1.55;;;;;;;;;;5042620;28;20516;-58
2023/10/04 02:45:36;;;;;;;8.60;1.70;;;;;;;;;;5037612;28;20080;-57
2023/10/04 02:48:09;;;;;;;6.18;1.55;;;;;;;;;;5039815;28;20053;-58
2023/10/04 02:50:39;;;;;;;6.20;1.58;;;;;;;;;;5041309;28;20052;-57
2023/10/04 02:53:07;;;;;;;8.48;1.73;;;;;;;;;;5038701;28;20045;-56
2023/10/04 02:55:35;;;;;;;5.78;1.40;;;;;;;;;;5040654;28;20080;-58
2023/10/04 02:58:05;;;;;;;6.95;2.17;;;;;;;;;;5042278;28;20049;-58
2023/10/04 03:00:33;;;;;;;5.43;1.20;;;;;;;;;;5042190;28;20060;-58
2023/10/04 03:02:59;;;;;;;6.15;1.70;;;;;;;;;;5042558;28;20450;-57
2023/10/04 03:05:29;;;;;;;9.50;2.00;;;;;;;;;;5047224;28;20079;-57
2023/10/04 03:07:55;;;;;;;5.53;1.42;;;;;;;;;;5046759;28;20045;-58
2023/10/04 03:10:24;;;;;;;7.55;1.65;;;;;;;;;;5048965;28;20103;-57
2023/10/04 03:12:52;;;;;;;10.80;2.00;;;;;;;;;;5044863;28;20068;-57
2023/10/04 03:15:22;;;;;;;4.95;1.38;;;;;;;;;;5041912;28;20090;-56
2023/10/04 03:17:53;;;;;;;6.13;1.67;;;;;;;;;;5045997;28;20127;-57
2023/10/04 03:20:20;;;;;;;5.38;1.85;;;;;;;;;;5046595;28;20128;-57
2023/10/04 03:22:50;;;;;;;5.43;1.98;;;;;;;;;;5044661;28;20067;-57
2023/10/04 03:25:20;;;;;;;5.82;1.60;;;;;;;;;;5045030;28;20049;-57
2023/10/04 03:27:47;;;;;;;4.57;1.70;;;;;;;;;;5044220;28;20048;-57
2023/10/04 03:30:14;;;;;;;8.32;2.10;;;;;;;;;;5045113;28;20095;-57
2023/10/04 03:32:45;;;;;;;7.07;1.38;;;;;;;;;;5040156;28;20049;-58
2023/10/04 03:35:14;;;;;;;6.40;2.03;;;;;;;;;;5045872;28;20388;-56
2023/10/04 03:37:50;;;;;;;4.57;1.35;;;;;;;;;;5045255;28;20854;-56
2023/10/04 03:40:17;;;;;;;4.97;1.55;;;;;;;;;;5045848;28;20049;-56
2023/10/04 03:42:45;;;;;;;8.52;1.80;;;;;;;;;;5037177;28;20152;-56
2023/10/04 03:45:11;;;;;;;4.55;1.42;;;;;;;;;;5042259;28;20106;-56
2023/10/04 03:47:38;;;;;;;4.88;1.80;;;;;;;;;;5046324;28;20059;-55
2023/10/04 03:50:14;;;;;;;6.15;1.80;;;;;;;;;;5041561;28;20057;-55
2023/10/04 03:52:42;;;;;;;5.20;1.42;;;;;;;;;;5045970;28;20080;-56
2023/10/04 03:55:10;;;;;;;6.50;1.85;;;;;;;;;;5044962;28;20072;-55
2023/10/04 03:57:40;;;;;;;7.32;2.75;;;;;;;;;;5046232;28;20091;-55
2023/10/04 04:00:10;;;;;;;10.45;1.75;;;;;;;;;;5044123;28;20044;-55
2023/10/04 04:02:38;;;;;;;8.05;1.63;;;;;;;;;;5043862;28;20072;-55
2023/10/04 04:05:21;;;;;;;6.65;2.00;;;;;;;;;;5042122;28;20044;-55
2023/10/04 04:07:48;;;;;;;4.35;1.35;;;;;;;;;;5042820;28;20049;-56
2023/10/04 04:10:16;;;;;;;5.75;1.80;;;;;;;;;;5046877;28;20130;-56
2023/10/04 04:12:42;;;;;;;8.65;1.92;;;;;;;;;;5043446;28;20466;-55
2023/10/04 04:15:09;;;;;;;7.20;1.70;;;;;;;;;;5039618;28;20059;-56
2023/10/04 04:17:37;;;;;;;9.02;2.05;;;;;;;;;;5046336;28;20048;-56
2023/10/04 04:20:08;;;;;;;6.85;2.38;;;;;;;;;;5040933;28;20459;-56
2023/10/04 04:22:34;;;;;;;9.75;2.05;;;;;;;;;;5045850;28;20045;-55
2023/10/04 04:25:03;;;;;;;13.57;2.25;;;;;;;;;;5040640;28;20123;-56
2023/10/04 04:27:30;;;;;;;4.35;1.20;;;;;;;;;;5042783;28;20542;-56
2023/10/04 04:29:57;;;;;;;6.30;1.67;;;;;;;;;;5042808;28;20051;-57
2023/10/04 04:32:26;;;;;;;5.63;1.45;;;;;;;;;;5042770;28;20521;-56
2023/10/04 04:34:54;;;;;;;6.35;1.63;;;;;;;;;;5038425;28;20050;-57
2023/10/04 04:37:23;;;;;;;8.73;1.83;;;;;;;;;;5040187;28;20057;-55
2023/10/04 04:39:51;;;;;;;12.30;1.92;;;;;;;;;;5044680;28;20095;-55
2023/10/04 04:42:22;;;;;;;5.47;1.67;;;;;;;;;;5027074;28;20053;-55
2023/10/04 04:44:49;;;;;;;6.97;1.92;;;;;;;;;;5040622;28;20045;-57
2023/10/04 04:47:18;;;;;;;7.07;1.52;;;;;;;;;;5044501;28;20084;-56
2023/10/04 04:49:44;;;;;;;5.45;1.75;;;;;;;;;;5042669;28;20068;-56
2023/10/04 04:52:11;;;;;;;8.27;1.90;;;;;;;;;;5043795;28;20499;-56
2023/10/04 04:54:37;;;;;;;5.32;1.77;;;;;;;;;;5039472;28;20080;-55
2023/10/04 04:57:05;;;;;;;7.15;1.50;;;;;;;;;;5043184;28;20063;-57
2023/10/04 04:59:31;;;;;;;8.50;2.13;;;;;;;;;;5044257;28;20132;-56
2023/10/04 05:01:58;;;;;;;7.65;2.22;;;;;;;;;;5042786;28;20495;-57
2023/10/04 05:04:24;;;;;;;8.02;2.08;;;;;;;;;;5043197;28;20048;-56
2023/10/04 05:06:51;;;;;;;3.97;1.50;;;;;;;;;;5044698;28;20144;-57
2023/10/04 05:09:17;;;;;;;5.65;1.60;;;;;;;;;;5041313;28;20095;-56
2023/10/04 05:11:45;;;;;;;7.43;2.22;;;;;;;;;;5036669;28;20049;-57
2023/10/04 05:14:11;;;;;;;12.00;2.72;;;;;;;;;;5040756;28;20098;-56
2023/10/04 05:16:38;;;;;;;6.13;2.28;;;;;;;;;;5031447;28;20057;-56
2023/10/04 05:19:08;;;;;;;6.60;2.13;;;;;;;;;;5039541;28;20077;-55
2023/10/04 05:21:36;;;;;;;6.63;1.77;;;;;;;;;;5039111;28;20119;-58
2023/10/04 05:24:03;;;;;;;8.60;1.95;;;;;;;;;;5044618;28;20132;-57
2023/10/04 05:26:30;;;;;;;4.85;1.50;;;;;;;;;;5042889;28;20053;-57
2023/10/04 05:28:56;;;;;;;7.65;1.63;;;;;;;;;;5041473;28;20152;-57
2023/10/04 05:31:23;;;;;;;6.85;1.98;;;;;;;;;;5042548;28;20099;-57
2023/10/04 05:33:49;;;;;;;6.50;1.77;;;;;;;;;;5041214;28;20041;-57
2023/10/04 05:36:17;;;;;;;6.60;1.38;;;;;;;;;;5033813;28;21215;-57
2023/10/04 05:38:44;;;;;;;8.18;1.98;;;;;;;;;;5034716;28;20041;-54
2023/10/04 05:41:10;;;;;;;6.32;1.73;;;;;;;;;;5043993;28;20072;-56
2023/10/04 05:43:37;;;;;;;5.70;1.67;;;;;;;;;;5035992;28;20054;-57
2023/10/04 05:46:06;;;;;;;5.65;2.45;;;;;;;;;;5040189;28;20481;-56
2023/10/04 05:48:35;;;;;;;11.85;2.22;;;;;;;;;;5046543;28;20053;-56
2023/10/04 05:51:02;;;;;;;5.40;2.25;;;;;;;;;;5043378;28;20053;-57
2023/10/04 05:53:28;;;;;;;12.43;2.83;;;;;;;;;;5039650;28;20155;-57
2023/10/04 05:55:55;;;;;;;7.95;2.00;;;;;;;;;;5042223;28;20099;-58
2023/10/04 05:58:21;;;;;;;7.85;2.35;;;;;;;;;;5040604;28;20049;-58
2023/10/04 06:00:52;;;;;;;6.30;1.65;;;;;;;;;;5042279;28;20041;-57
2023/10/04 06:03:20;;;;;;;6.90;2.00;;;;;;;;;;5041220;28;20495;-58
2023/10/04 06:05:47;;;;;;;9.60;2.10;;;;;;;;;;5042772;28;20078;-57
2023/10/04 06:08:21;;;;;;;11.02;2.25;;;;;;;;;;5041241;28;20730;-58
2023/10/04 06:10:50;;;;;;;12.43;2.83;;;;;;;;;;5039126;28;20072;-57
2023/10/04 06:13:17;;;;;;;6.10;2.17;;;;;;;;;;5042670;28;20345;-58
2023/10/04 06:15:45;;;;;;;9.98;2.28;;;;;;;;;;5041610;28;20044;-57
2023/10/04 06:18:14;;;;;;;9.38;2.83;;;;;;;;;;5037684;28;22240;-58
2023/10/04 06:20:40;;;;;;;9.43;2.63;;;;;;;;;;5038678;28;20565;-58
2023/10/04 06:23:09;;;;;;;9.18;2.33;;;;;;;;;;5043500;28;20127;-58
2023/10/04 06:25:39;;;;;;;8.45;2.28;;;;;;;;;;5045793;28;20647;-57
2023/10/04 06:28:06;;;;;;;10.88;2.97;;;;;;;;;;5039345;28;20045;-58
2023/10/04 06:30:33;;;;;;;7.85;1.85;;;;;;;;;;5040711;28;20817;-57
2023/10/04 06:33:01;;;;;;;9.98;2.45;;;;;;;;;;5034858;28;20045;-56
2023/10/04 06:35:28;;;;;;;15.05;3.45;;;;;;;;;;5038513;28;20476;-57
2023/10/04 06:37:58;;;;;;;10.35;2.65;;;;;;;;;;5044116;28;20053;-56
2023/10/04 06:40:25;;;;;;;11.77;2.72;;;;;;;;;;5036845;28;20053;-57
2023/10/04 06:42:52;;;;;;;5.22;1.92;;;;;;;;;;5034823;28;20045;-57
2023/10/04 06:45:19;;;;;;;16.60;2.85;;;;;;;;;;5042026;28;20252;-58
2023/10/04 06:47:47;;;;;;;8.82;2.85;;;;;;;;;;5043084;28;20056;-57
2023/10/04 06:50:16;;;;;;;8.88;2.15;;;;;;;;;;5034606;28;20136;-57
2023/10/04 06:52:43;;;;;;;8.05;2.40;;;;;;;;;;5039019;28;20048;-57
2023/10/04 06:55:11;;;;;;;13.50;3.03;;;;;;;;;;5040413;28;20159;-57
2023/10/04 06:57:40;;;;;;;9.77;2.83;;;;;;;;;;5042190;28;20052;-58
2023/10/04 07:00:14;;;;;;;7.75;2.33;;;;;;;;;;5037885;28;20056;-57
2023/10/04 07:02:43;;;;;;;11.27;3.20;;;;;;;;;;5042329;28;20056;-58
2023/10/04 07:05:17;;;;;;;11.45;3.35;;;;;;;;;;5037166;28;20390;-56
2023/10/04 07:07:44;;;;;;;6.38;2.17;;;;;;;;;;5041596;28;20516;-57
2023/10/04 07:10:14;;;;;;;11.13;2.92;;;;;;;;;;5040497;28;20681;-57
2023/10/04 07:12:41;;;;;;;9.82;2.35;;;;;;;;;;5042145;28;20131;-57
2023/10/04 07:15:10;;;;;;;12.90;3.70;;;;;;;;;;5037380;28;20910;-56
2023/10/04 07:17:39;;;;;;;11.95;2.97;;;;;;;;;;5040372;28;20041;-57
2023/10/04 07:20:07;;;;;;;12.63;3.20;;;;;;;;;;5040808;28;20698;-57
2023/10/04 07:22:36;;;;;;;10.05;3.08;;;;;;;;;;5039131;28;20541;-56
2023/10/04 07:25:02;;;;;;;7.28;2.60;;;;;;;;;;5039295;28;20049;-57
2023/10/04 07:27:29;;;;;;;9.00;2.97;;;;;;;;;;5038775;28;20056;-56
2023/10/04 07:29:55;;;;;;;7.40;2.33;;;;;;;;;;5042133;28;20041;-56
2023/10/04 07:32:22;;;;;;;14.73;3.03;;;;;;;;;;5037672;28;20053;-59
2023/10/04 07:34:48;;;;;;;10.98;3.88;;;;;;;;;;5025965;28;20065;-57
2023/10/04 07:37:15;;;;;;;9.63;2.80;;;;;;;;;;5040924;28;20167;-56
2023/10/04 07:39:42;;;;;;;5.88;2.00;;;;;;;;;;5040699;28;20076;-55
2023/10/04 07:42:10;;;;;;;6.78;2.20;;;;;;;;;;5038023;28;20045;-55
2023/10/04 07:44:36;;;;;;;15.43;3.75;;;;;;;;;;5032308;28;20053;-56
2023/10/04 07:47:03;;;;;;;10.13;2.47;;;;;;;;;;5037704;28;20049;-56
2023/10/04 07:49:29;;;;;;;9.30;2.97;;;;;;;;;;5036560;28;20399;-56
2023/10/04 07:51:56;;;;;;;7.78;2.65;;;;;;;;;;5042810;28;20081;-56
2023/10/04 07:54:22;;;;;;;17.35;3.10;;;;;;;;;;5044660;28;20073;-55
2023/10/04 07:56:49;;;;;;;9.75;2.00;;;;;;;;;;5043581;28;20080;-55
2023/10/04 07:59:17;;;;;;;10.75;3.33;;;;;;;;;;5045598;28;20546;-64
2023/10/04 08:01:43;;;;;;;11.07;2.90;;;;;;;;;;5036543;28;20586;-56
2023/10/04 08:04:11;;;;;;;12.70;2.88;;;;;;;;;;5047318;28;20053;-55
2023/10/04 08:06:41;;;;;;;10.10;2.67;;;;;;;;;;5041660;28;20053;-56
2023/10/04 08:09:07;;;;;;;8.52;2.55;;;;;;;;;;5043924;28;20076;-55
2023/10/04 08:11:34;;;;;;;9.90;2.70;;;;;;;;;;5044505;28;20572;-56
2023/10/04 08:14:01;;;;;;;11.18;3.35;;;;;;;;;;5048869;28;20114;-56
2023/10/04 08:16:28;;;;;;;7.57;2.72;;;;;;;;;;5042516;28;20052;-57
2023/10/04 08:18:55;;;;;;;7.85;2.08;;;;;;;;;;5046906;28;20059;-56
2023/10/04 08:21:25;;;;;;;5.88;2.05;;;;;;;;;;5039940;28;20150;-56
2023/10/04 08:23:51;;;;;;;9.40;2.90;;;;;;;;;;5042854;28;20410;-56
2023/10/04 08:26:18;;;;;;;7.82;2.55;;;;;;;;;;5040436;28;20126;-56
2023/10/04 08:28:45;;;;;;;3.83;1.70;;;;;;;;;;5041153;28;20376;-58
2023/10/04 08:31:16;;;;;;;10.75;2.78;;;;;;;;;;5040850;28;20499;-58
2023/10/04 08:33:45;;;;;;;8.75;2.13;;;;;;;;;;5038604;28;20041;-55
2023/10/04 08:36:18;;;;;;;10.85;2.53;;;;;;;;;;5043648;28;20048;-56
2023/10/04 08:38:46;;;;;;;11.65;2.78;;;;;;;;;;5043004;28;20045;-56
2023/10/04 08:41:12;;;;;;;9.98;2.45;;;;;;;;;;5045494;28;20049;-57
2023/10/04 08:43:39;;;;;;;6.18;2.05;;;;;;;;;;5039986;28;20072;-57
2023/10/04 08:46:08;;;;;;;7.18;2.35;;;;;;;;;;5044611;28;20049;-57
2023/10/04 08:48:35;;;;;;;6.43;2.28;;;;;;;;;;5042155;28;20052;-57
2023/10/04 08:51:17;;;;;;;10.05;2.53;;;;;;;;;;5038378;28;20082;-58
2023/10/04 08:53:47;;;;;;;6.30;1.90;;;;;;;;;;5043418;28;20049;-58
2023/10/04 08:56:15;;;;;;;11.20;2.63;;;;;;;;;;5042381;28;20041;-57
2023/10/04 08:58:43;;;;;;;11.57;2.42;;;;;;;;;;5038003;28;20053;-58
2023/10/04 09:01:11;;;;;;;9.50;2.55;;;;;;;;;;5041116;28;20454;-55
2023/10/04 09:03:40;;;;;;;6.70;2.00;;;;;;;;;;5041906;28;20048;-57
2023/10/04 09:06:10;;;;;;;14.85;2.75;;;;;;;;;;5038849;28;20080;-57
2023/10/04 09:08:40;;;;;;;7.95;2.63;;;;;;;;;;5034492;28;20080;-57
2023/10/04 09:11:10;;;;;;;11.80;2.30;;;;;;;;;;5038554;28;20056;-56
2023/10/04 09:13:44;;;;;;;11.25;2.55;;;;;;;;;;5041304;28;20411;-57
2023/10/04 09:16:17;;;;;;;5.32;1.70;;;;;;;;;;5037074;28;20102;-56
2023/10/04 09:18:44;;;;;;;10.80;2.55;;;;;;;;;;5042157;28;20057;-57
2023/10/04 09:21:15;;;;;;;7.15;1.85;;;;;;;;;;5042248;28;20457;-57
2023/10/04 09:23:46;;;;;;;7.00;2.47;;;;;;;;;;5038671;28;20045;-55
2023/10/04 09:26:16;;;;;;;11.10;2.42;;;;;;;;;;5041453;28;20045;-56
2023/10/04 09:28:43;;;;;;;9.23;2.25;;;;;;;;;;5043591;28;20415;-55
2023/10/04 09:31:13;;;;;;;6.55;1.90;;;;;;;;;;5039824;28;20041;-54
2023/10/04 09:33:40;;;;;;;9.35;2.33;;;;;;;;;;5044899;28;20036;-55
2023/10/04 09:36:10;;;;;;;8.80;2.40;;;;;;;;;;5042460;28;20063;-55
2023/10/04 09:38:36;;;;;;;7.82;2.42;;;;;;;;;;5041568;28;20118;-55
2023/10/04 09:41:03;;;;;;;8.27;2.15;;;;;;;;;;5044034;28;20102;-57
2023/10/04 09:43:30;;;;;;;8.02;2.08;;;;;;;;;;5040372;28;20471;-54
2023/10/04 09:45:57;;;;;;;6.88;2.17;;;;;;;;;;5037488;28;20049;-56
2023/10/04 09:48:25;;;;;;;7.95;2.38;;;;;;;;;;5039985;28;20060;-55
2023/10/04 09:50:59;;;;;;;6.55;2.00;;;;;;;;;;5042664;28;20557;-55
2023/10/04 09:53:25;;;;;;;5.43;1.88;;;;;;;;;;5041493;28;20650;-55
2023/10/04 09:55:53;;;;;;;7.45;1.98;;;;;;;;;;5044031;28;20057;-55
2023/10/04 09:58:23;;;;;;;8.07;2.42;;;;;;;;;;5038558;28;20048;-56
2023/10/04 10:00:50;;;;;;;5.45;1.98;;;;;;;;;;5040953;28;20122;-56
2023/10/04 10:03:19;;;;;;;6.72;2.13;;;;;;;;;;5040893;28;20045;-55
2023/10/04 10:05:46;;;;;;;9.30;2.33;;;;;;;;;;5044216;28;20140;-56
2023/10/04 10:08:13;;;;;;;10.35;2.40;;;;;;;;;;5037454;28;20122;-56
2023/10/04 10:10:43;;;;;;;9.02;1.98;;;;;;;;;;5039932;28;20051;-56
2023/10/04 10:13:10;;;;;;;8.52;2.25;;;;;;;;;;5043151;28;20132;-55
2023/10/04 10:15:37;;;;;;;6.68;2.35;;;;;;;;;;5039703;28;20045;-56
2023/10/04 10:18:07;;;;;;;8.05;2.17;;;;;;;;;;5040446;28;20049;-56
2023/10/04 10:20:34;;;;;;;13.80;2.50;;;;;;;;;;5043961;28;20080;-56
2023/10/04 10:23:01;;;;;;;7.75;2.53;;;;;;;;;;5041446;28;20507;-56
2023/10/04 10:25:29;;;;;;;9.23;2.28;;;;;;;;;;5039770;28;20091;-56
2023/10/04 10:28:01;;;;;;;8.27;2.63;;;;;;;;;;5039694;28;20056;-56
2023/10/04 10:30:30;;;;;;;10.90;2.42;;;;;;;;;;5037483;28;20045;-56
2023/10/04 10:33:00;;;;;;;9.88;2.65;;;;;;;;;;5037308;28;20053;-56
2023/10/04 10:35:45;;;;;;;11.13;2.42;;;;;;;;;;5022092;28;20091;-57
2023/10/04 10:38:43;;;;;;;5.00;1.63;;;;;;;;;;5041153;28;20049;-56
2023/10/04 10:41:31;;;;;;;12.10;2.42;;;;;;;;;;5041966;28;20049;-56
2023/10/04 10:44:13;;;;;;;11.70;2.65;;;;;;;;;;5040893;28;20073;-57
2023/10/04 10:46:54;;;;;;;13.50;2.38;;;;;;;;;;5038897;28;20463;-56
2023/10/04 10:49:36;;;;;;;8.02;2.60;;;;;;;;;;5035976;28;20049;-56
2023/10/04 10:52:03;;;;;;;8.25;2.67;;;;;;;;;;5037329;28;20078;-56
2023/10/04 10:54:29;;;;;;;8.60;2.53;;;;;;;;;;5042935;28;22078;-57
2023/10/04 10:56:56;;;;;;;9.18;2.55;;;;;;;;;;5040845;28;20572;-58
2023/10/04 10:59:23;;;;;;;10.45;2.53;;;;;;;;;;5037406;28;20154;-58
2023/10/04 11:01:49;;;;;;;6.93;1.67;;;;;;;;;;5038514;28;20569;-57
2023/10/04 11:04:16;;;;;;;7.68;2.95;;;;;;;;;;5041075;28;20045;-56
2023/10/04 11:06:43;;;;;;;8.70;2.45;;;;;;;;;;5040381;28;20060;-57
2023/10/04 11:09:09;;;;;;;10.38;2.35;;;;;;;;;;5035992;28;20128;-57
2023/10/04 11:11:36;;;;;;;10.23;2.88;;;;;;;;;;5040877;28;20080;-57
2023/10/04 11:14:05;;;;;;;12.52;2.97;;;;;;;;;;5041856;28;20771;-57
2023/10/04 11:16:33;;;;;;;16.30;2.83;;;;;;;;;;5037620;28;20053;-57
2023/10/04 11:19:02;;;;;;;9.77;2.53;;;;;;;;;;5041064;28;20106;-58
2023/10/04 11:21:29;;;;;;;11.88;3.05;;;;;;;;;;5040885;28;20091;-57
2023/10/04 11:23:55;;;;;;;6.13;2.28;;;;;;;;;;5038670;28;20048;-56
2023/10/04 11:26:22;;;;;;;9.25;2.13;;;;;;;;;;5043700;28;20045;-56
2023/10/04 11:28:49;;;;;;;7.63;1.80;;;;;;;;;;5043262;28;20143;-56
2023/10/04 11:31:16;;;;;;;7.53;1.73;;;;;;;;;;5045637;28;20127;-57
2023/10/04 11:33:49;;;;;;;4.63;1.77;;;;;;;;;;5043021;28;20506;-55
2023/10/04 11:36:21;;;;;;;8.85;1.50;;;;;;;;;;5044255;28;20048;-55
2023/10/04 11:38:54;;;;;;;9.48;1.70;;;;;;;;;;5043508;28;20079;-56
2023/10/04 11:41:21;;;;;;;7.55;1.38;;;;;;;;;;5043009;28;20049;-56
2023/10/04 11:43:53;;;;;;;4.38;1.38;;;;;;;;;;5043720;28;20131;-57
2023/10/04 11:46:22;;;;;;;7.22;1.27;;;;;;;;;;5041993;28;20044;-56
2023/10/04 11:48:49;;;;;;;6.10;1.35;;;;;;;;;;5043393;28;20068;-57
2023/10/04 11:51:28;;;;;;;5.88;1.55;;;;;;;;;;5046074;28;20472;-56
2023/10/04 11:53:55;;;;;;;4.32;1.20;;;;;;;;;;5045848;28;20778;-56
2023/10/04 11:56:21;;;;;;;7.18;1.80;;;;;;;;;;5042640;28;20067;-57
2023/10/04 11:58:49;;;;;;;7.53;1.45;;;;;;;;;;5043723;28;20048;-57
2023/10/04 12:01:16;;;;;;;8.57;1.45;;;;;;;;;;5036988;28;20041;-57
2023/10/04 12:03:43;;;;;;;8.80;2.03;;;;;;;;;;5051005;28;20057;-57
2023/10/04 12:06:09;;;;;;;6.50;1.30;;;;;;;;;;5042362;28;20045;-57
2023/10/04 12:08:36;;;;;;;5.63;1.42;;;;;;;;;;5046367;28;20052;-56
2023/10/04 12:11:13;;;;;;;8.00;1.27;;;;;;;;;;5039744;28;20198;-57
2023/10/04 12:13:40;;;;;;;6.72;1.20;;;;;;;;;;5043522;28;20045;-57
2023/10/04 12:16:06;;;;;;;8.57;1.63;;;;;;;;;;5041978;28;20140;-57
2023/10/04 12:18:34;;;;;;;5.25;1.13;;;;;;;;;;5044504;28;20049;-57
2023/10/04 12:21:01;;;;;;;7.88;1.10;;;;;;;;;;5044120;28;20044;-57
2023/10/04 12:23:27;;;;;;;4.95;0.93;;;;;;;;;;5043283;28;20145;-56
2023/10/04 12:25:53;;;;;;;7.78;1.25;;;;;;;;;;5042886;28;20128;-56
2023/10/04 12:28:20;;;;;;;5.85;1.00;;;;;;;;;;5043504;28;20065;-57
2023/10/04 12:30:48;;;;;;;4.82;1.13;;;;;;;;;;5043129;28;20040;-57
2023/10/04 12:33:15;;;;;;;4.68;1.15;;;;;;;;;;5044529;28;20041;-57
2023/10/04 12:35:42;;;;;;;7.50;1.20;;;;;;;;;;5041855;28;20411;-55
2023/10/04 12:38:08;;;;;;;7.05;1.25;;;;;;;;;;5041865;28;20045;-57
2023/10/04 12:40:35;;;;;;;3.45;1.05;;;;;;;;;;5038368;28;20049;-58
2023/10/04 12:43:02;;;;;;;7.88;1.23;;;;;;;;;;5043445;28;20123;-57
2023/10/04 12:45:29;;;;;;;7.47;1.17;;;;;;;;;;5041270;28;20135;-57
2023/10/04 12:47:56;;;;;;;3.47;0.77;;;;;;;;;;5044597;28;20131;-56
2023/10/04 12:50:24;;;;;;;7.18;1.15;;;;;;;;;;5041903;28;20048;-57
2023/10/04 12:52:51;;;;;;;7.63;1.30;;;;;;;;;;5045579;28;20106;-57
2023/10/04 12:55:17;;;;;;;9.10;1.10;;;;;;;;;;5042179;28;20048;-56
2023/10/04 12:57:44;;;;;;;6.10;1.10;;;;;;;;;;5039136;28;20138;-56
2023/10/04 13:00:14;;;;;;;4.40;0.93;;;;;;;;;;5044186;28;20514;-56
2023/10/04 13:02:44;;;;;;;6.75;1.23;;;;;;;;;;5047064;28;20048;-56
2023/10/04 13:05:13;;;;;;;2.15;0.77;;;;;;;;;;5044887;28;20199;-56
2023/10/04 13:07:43;;;;;;;5.35;1.02;;;;;;;;;;5043363;28;20095;-56
2023/10/04 13:10:10;;;;;;;8.90;1.30;;;;;;;;;;5043015;28;20045;-54
2023/10/04 13:12:37;;;;;;;4.32;1.10;;;;;;;;;;5040849;28;20165;-55
2023/10/04 13:15:08;;;;;;;2.72;0.93;;;;;;;;;;5038220;28;20044;-54
2023/10/04 13:17:36;;;;;;;3.22;1.05;;;;;;;;;;5040701;28;20072;-56
2023/10/04 13:20:24;;;;;;;2.85;0.93;;;;;;;;;;5034648;28;20103;-56
2023/10/04 13:22:51;;;;;;;4.20;1.00;;;;;;;;;;5042939;28;20049;-54
2023/10/04 13:25:18;;;;;;;6.75;1.30;;;;;;;;;;5049905;28;20059;-56
2023/10/04 13:27:45;;;;;;;5.13;1.23;;;;;;;;;;5038689;28;20065;-56
2023/10/04 13:30:15;;;;;;;5.05;1.13;;;;;;;;;;5044921;28;20044;-57
2023/10/04 13:32:47;;;;;;;7.25;1.35;;;;;;;;;;5042658;28;20057;-56
2023/10/04 13:35:16;;;;;;;6.22;1.23;;;;;;;;;;5040724;28;20048;-56
2023/10/04 13:37:45;;;;;;;4.55;1.00;;;;;;;;;;5042981;28;20051;-56
2023/10/04 13:40:19;;;;;;;5.90;1.25;;;;;;;;;;5042123;28;20053;-55
2023/10/04 13:42:46;;;;;;;5.35;0.93;;;;;;;;;;5044142;28;20045;-56
2023/10/04 13:45:16;;;;;;;4.68;1.00;;;;;;;;;;5041073;28;20817;-56
2023/10/04 13:47:43;;;;;;;8.27;1.45;;;;;;;;;;5043320;28;20145;-56
2023/10/04 13:50:10;;;;;;;9.65;1.30;;;;;;;;;;5040006;28;20037;-55
2023/10/04 13:52:38;;;;;;;4.13;0.90;;;;;;;;;;5044087;28;20048;-57
2023/10/04 13:55:05;;;;;;;7.03;1.33;;;;;;;;;;5044875;28;20041;-55
2023/10/04 13:57:32;;;;;;;3.72;0.77;;;;;;;;;;5040906;28;20068;-56
2023/10/04 13:59:59;;;;;;;5.35;0.85;;;;;;;;;;5038771;28;20052;-57
2023/10/04 14:02:25;;;;;;;3.53;0.77;;;;;;;;;;5037461;28;20898;-55
2023/10/04 14:04:52;;;;;;;3.88;1.17;;;;;;;;;;5040671;28;20052;-56
2023/10/04 14:07:20;;;;;;;5.97;0.82;;;;;;;;;;5041349;28;20056;-57
2023/10/04 14:09:46;;;;;;;3.50;0.98;;;;;;;;;;5041365;28;20458;-56
2023/10/04 14:12:13;;;;;;;6.53;0.90;;;;;;;;;;5041165;28;20048;-56
2023/10/04 14:14:39;;;;;;;6.15;1.10;;;;;;;;;;5041258;28;20052;-58
2023/10/04 14:17:08;;;;;;;4.20;1.27;;;;;;;;;;5040208;28;20098;-56
2023/10/04 14:19:36;;;;;;;5.70;1.08;;;;;;;;;;5034745;28;20049;-56
2023/10/04 14:22:05;;;;;;;3.13;1.10;;;;;;;;;;5044097;28;20136;-56
2023/10/04 14:24:33;;;;;;;7.18;0.93;;;;;;;;;;5041640;28;20136;-56
2023/10/04 14:27:02;;;;;;;5.30;0.90;;;;;;;;;;5042566;28;20057;-56
2023/10/04 14:29:30;;;;;;;7.18;0.95;;;;;;;;;;5040030;28;20459;-57
2023/10/04 14:31:57;;;;;;;2.75;0.70;;;;;;;;;;5041969;28;20040;-57
2023/10/04 14:34:23;;;;;;;5.80;0.70;;;;;;;;;;5042352;28;20057;-54
2023/10/04 14:36:50;;;;;;;4.43;0.70;;;;;;;;;;5027399;28;20513;-57
2023/10/04 14:39:21;;;;;;;5.25;1.20;;;;;;;;;;5039782;28;20116;-55
2023/10/04 14:41:48;;;;;;;3.42;0.70;;;;;;;;;;5036608;28;20052;-55
2023/10/04 14:44:15;;;;;;;8.15;1.20;;;;;;;;;;5042427;28;20114;-57
2023/10/04 14:46:41;;;;;;;7.13;1.05;;;;;;;;;;5039128;28;20400;-56
2023/10/04 14:49:08;;;;;;;6.75;1.10;;;;;;;;;;5044324;28;20045;-56